Time;durP1;ratioP1;P1;durP2;ratioP2;P2;SDS_P1;SDS_P2;PMS_P1;PMS_P2;Temp;Humidity;BMP_temperature;BMP_pressure;BME280_temperature;BME280_humidity;BME280_pressure;Samples;Min_cycle;Max_cycle;Signal;HPM_P1;HPM_P2
2022/01/21 00:01:21;;;;;;;0.20;0.20;;;4.80;99.90;;;;;;6183140;23;20193;-89
2022/01/21 00:03:48;;;;;;;0.43;0.43;;;4.80;99.90;;;;;;6208531;23;20158;-89
2022/01/21 00:06:14;;;;;;;0.30;0.30;;;4.90;99.90;;;;;;6182757;23;20202;-89
2022/01/21 00:08:42;;;;;;;0.30;0.30;;;4.90;99.90;;;;;;6207935;23;20635;-89
2022/01/21 00:11:10;;;;;;;0.70;0.70;;;4.90;99.90;;;;;;6207926;23;20202;-89
2022/01/21 00:13:36;;;;;;;7.10;1.27;;;5.00;99.90;;;;;;6183084;23;20197;-89
2022/01/21 00:16:08;;;;;;;0.30;0.30;;;5.00;99.90;;;;;;6183936;23;20225;-89
2022/01/21 00:18:36;;;;;;;0.70;0.70;;;5.10;99.90;;;;;;6209649;23;20522;-89
2022/01/21 00:32:10;;;;;;;0.77;0.77;;;4.90;99.90;;;;;;6188384;23;20198;-89
2022/01/21 00:34:36;;;;;;;3.50;1.70;;;4.80;99.90;;;;;;6184510;23;20282;-89
2022/01/21 00:37:02;;;;;;;0.93;0.53;;;4.70;99.90;;;;;;6161063;23;20165;-89
2022/01/21 00:39:31;;;;;;;0.93;0.93;;;4.60;99.90;;;;;;6159930;23;20671;-89
2022/01/21 00:42:05;;;;;;;0.67;0.60;;;4.60;99.90;;;;;;6185276;23;20283;-89
2022/01/21 00:44:31;;;;;;;0.33;0.33;;;4.80;99.90;;;;;;6186494;23;20268;-89
2022/01/21 00:46:57;;;;;;;1.83;0.87;;;4.90;99.90;;;;;;6184893;23;20257;-90
2022/01/21 00:49:24;;;;;;;10.73;0.50;;;5.00;99.90;;;;;;6184286;23;20256;-89
2022/01/21 00:51:49;;;;;;;1.33;1.03;;;5.10;99.90;;;;;;6160627;23;20653;-90
2022/01/21 00:54:15;;;;;;;6.10;0.87;;;5.10;99.90;;;;;;6184148;23;20237;-89
2022/01/21 00:56:41;;;;;;;0.87;0.70;;;5.10;99.90;;;;;;6185144;23;20197;-89
2022/01/21 00:59:07;;;;;;;0.30;0.30;;;5.30;99.90;;;;;;6184493;23;20210;-89
2022/01/21 01:01:33;;;;;;;0.40;0.40;;;5.60;99.90;;;;;;6184590;23;20635;-89
2022/01/21 01:03:59;;;;;;;0.83;0.40;;;5.70;99.90;;;;;;6185561;23;20218;-89
2022/01/21 01:06:27;;;;;;;9.70;0.97;;;5.70;99.90;;;;;;6184147;23;20205;-89
2022/01/21 01:08:53;;;;;;;0.67;0.67;;;5.60;99.90;;;;;;6209423;23;20294;-89
2022/01/21 01:22:10;;;;;;;1.80;0.60;;;5.40;99.90;;;;;;6209783;23;20142;-89
2022/01/21 01:29:56;;;;;;;4.63;0.30;;;5.30;99.90;;;;;;6210664;23;20285;-89
2022/01/21 01:32:23;;;;;;;0.37;0.37;;;5.20;99.90;;;;;;6159710;23;20802;-89
2022/01/21 01:34:49;;;;;;;0.20;0.20;;;5.20;99.90;;;;;;6160225;23;20532;-88
2022/01/21 01:37:29;;;;;;;1.97;1.37;;;5.30;99.90;;;;;;6208689;23;20170;-89
2022/01/21 01:40:16;;;;;;;1.23;0.83;;;5.30;99.90;;;;;;6210162;23;20559;-89
2022/01/21 01:50:49;;;;;;;1.70;0.50;;;5.40;99.90;;;;;;6209118;23;20205;-89
2022/01/21 01:53:17;;;;;;;0.80;0.80;;;5.50;99.90;;;;;;6183818;23;20717;-89
2022/01/21 01:55:44;;;;;;;0.27;0.27;;;5.40;99.90;;;;;;6184705;23;20202;-89
2022/01/21 01:58:12;;;;;;;0.30;0.30;;;5.40;99.90;;;;;;6159694;23;20170;-89
2022/01/21 02:00:39;;;;;;;0.50;0.50;;;5.40;99.90;;;;;;6185595;23;20240;-89
2022/01/21 02:03:06;;;;;;;0.40;0.40;;;5.50;99.90;;;;;;6184071;23;20198;-89
2022/01/21 02:05:32;;;;;;;1.77;0.80;;;5.40;99.90;;;;;;6159073;23;20194;-89
2022/01/21 02:07:58;;;;;;;2.00;0.43;;;5.30;99.90;;;;;;6183725;23;20198;-89
2022/01/21 02:10:24;;;;;;;0.30;0.30;;;5.30;99.90;;;;;;6184088;23;20177;-89
2022/01/21 02:12:50;;;;;;;0.30;0.30;;;5.20;99.90;;;;;;6159843;23;20598;-89
2022/01/21 02:15:16;;;;;;;0.30;0.30;;;5.00;99.90;;;;;;6183535;23;20198;-89
2022/01/21 02:22:52;;;;;;;0.77;0.77;;;4.90;99.90;;;;;;6209425;23;20197;-89
2022/01/21 02:25:19;;;;;;;0.30;0.30;;;4.90;99.90;;;;;;6183460;23;20304;-89
2022/01/21 02:27:58;;;;;;;0.30;0.30;;;4.90;99.90;;;;;;6209390;23;20174;-89
2022/01/21 02:30:24;;;;;;;0.30;0.30;;;4.90;99.90;;;;;;6208419;23;20198;-88
2022/01/21 02:32:55;;;;;;;0.20;0.20;;;4.90;99.90;;;;;;6183824;23;20530;-88
2022/01/21 02:35:22;;;;;;;0.70;0.70;;;4.90;99.90;;;;;;6208720;23;20256;-89
2022/01/21 02:37:49;;;;;;;0.23;0.23;;;5.10;99.90;;;;;;6208451;23;20221;-88
2022/01/21 02:40:15;;;;;;;0.30;0.30;;;5.40;99.90;;;;;;6210129;23;20503;-89
2022/01/21 02:42:42;;;;;;;0.37;0.37;;;5.40;99.90;;;;;;6184692;23;20158;-90
2022/01/21 02:45:09;;;;;;;0.30;0.30;;;5.30;99.90;;;;;;6209261;23;20698;-90
2022/01/21 02:47:35;;;;;;;0.20;0.20;;;5.30;99.90;;;;;;6208465;23;20198;-89
2022/01/21 02:50:01;;;;;;;0.30;0.30;;;5.20;99.90;;;;;;6184288;23;20232;-90
2022/01/21 02:52:30;;;;;;;0.57;0.57;;;5.30;99.90;;;;;;6184232;23;20194;-89
2022/01/21 02:54:56;;;;;;;2.90;0.50;;;5.20;99.90;;;;;;6185676;23;20812;-88
2022/01/21 02:57:22;;;;;;;0.20;0.20;;;5.20;99.90;;;;;;6183989;23;20197;-90
2022/01/21 02:59:49;;;;;;;0.30;0.30;;;5.10;99.90;;;;;;6159277;23;20217;-89
2022/01/21 03:02:15;;;;;;;0.40;0.40;;;5.00;99.90;;;;;;6209404;23;20253;-89
2022/01/21 03:05:05;;;;;;;0.20;0.20;;;5.00;99.90;;;;;;6184207;23;20198;-89
2022/01/21 03:07:29;;;;;;;0.20;0.20;;;4.90;99.90;;;;;;6188916;23;20273;-89
2022/01/21 03:09:55;;;;;;;0.50;0.50;;;5.00;99.90;;;;;;6185193;23;20193;-90
2022/01/21 03:12:24;;;;;;;0.40;0.40;;;4.90;99.90;;;;;;6183936;23;20201;-89
2022/01/21 03:14:50;;;;;;;0.30;0.30;;;4.90;99.90;;;;;;6160696;23;20198;-89
2022/01/21 03:17:16;;;;;;;0.43;0.43;;;5.00;99.90;;;;;;6159544;23;20202;-89
2022/01/21 03:19:42;;;;;;;0.30;0.30;;;5.00;99.90;;;;;;6184029;23;20205;-90
2022/01/21 03:22:07;;;;;;;0.20;0.20;;;5.00;99.90;;;;;;6159247;23;20162;-89
2022/01/21 03:24:33;;;;;;;1.10;0.60;;;5.00;99.90;;;;;;6159728;23;20161;-89
2022/01/21 03:26:59;;;;;;;1.50;0.33;;;5.10;99.90;;;;;;6159427;23;20193;-89
2022/01/21 03:29:25;;;;;;;0.57;0.57;;;5.20;99.90;;;;;;6184197;23;20832;-89
2022/01/21 03:31:50;;;;;;;0.60;0.50;;;5.10;99.90;;;;;;6159346;23;20764;-89
2022/01/21 03:34:16;;;;;;;0.23;0.23;;;5.10;99.90;;;;;;6183842;23;20217;-89
2022/01/21 03:36:42;;;;;;;0.60;0.37;;;5.10;99.90;;;;;;6160202;23;20181;-90
2022/01/21 03:39:08;;;;;;;0.30;0.30;;;5.30;99.90;;;;;;6184951;23;20251;-90
2022/01/21 03:41:34;;;;;;;0.50;0.50;;;5.30;99.90;;;;;;6185677;23;20292;-90
2022/01/21 03:44:00;;;;;;;0.30;0.30;;;5.20;99.90;;;;;;6160996;23;20205;-90
2022/01/21 03:46:26;;;;;;;0.60;0.60;;;5.10;99.90;;;;;;6160117;23;20262;-89
2022/01/21 03:48:51;;;;;;;0.20;0.20;;;5.00;99.90;;;;;;6160699;23;20293;-90
2022/01/21 03:51:19;;;;;;;0.20;0.20;;;5.00;99.90;;;;;;6160494;23;20233;-90
2022/01/21 03:53:46;;;;;;;0.30;0.30;;;5.00;99.90;;;;;;6211490;23;20210;-89
2022/01/21 03:56:16;;;;;;;1.13;1.13;;;5.10;99.90;;;;;;6160762;23;20197;-91
2022/01/21 03:58:42;;;;;;;0.30;0.30;;;5.00;99.90;;;;;;6210998;23;20263;-91
2022/01/21 04:01:09;;;;;;;0.50;0.50;;;5.00;99.90;;;;;;6186032;23;20158;-90
2022/01/21 04:03:35;;;;;;;1.27;0.47;;;4.90;99.90;;;;;;6211142;23;20158;-90
2022/01/21 04:06:01;;;;;;;1.23;1.23;;;4.80;99.90;;;;;;6160937;23;20661;-91
2022/01/21 04:08:27;;;;;;;0.30;0.30;;;4.80;99.90;;;;;;6185096;23;20200;-90
2022/01/21 04:10:52;;;;;;;0.30;0.30;;;4.80;99.90;;;;;;6160882;23;20654;-90
2022/01/21 04:13:20;;;;;;;0.60;0.60;;;4.70;99.90;;;;;;6160920;23;20165;-89
2022/01/21 04:15:52;;;;;;;1.60;0.50;;;4.80;99.90;;;;;;6186747;23;20151;-90
2022/01/21 04:18:18;;;;;;;0.40;0.40;;;5.00;99.90;;;;;;6210493;23;20193;-90
2022/01/21 04:20:46;;;;;;;0.50;0.50;;;5.10;99.90;;;;;;6210613;23;20201;-90
2022/01/21 04:23:13;;;;;;;0.20;0.20;;;5.10;99.90;;;;;;6185734;23;20218;-89
2022/01/21 04:25:39;;;;;;;0.30;0.30;;;5.20;99.90;;;;;;6210941;23;20222;-90
2022/01/21 04:28:05;;;;;;;0.30;0.30;;;5.30;99.90;;;;;;6186729;23;20193;-90
2022/01/21 04:30:32;;;;;;;0.30;0.30;;;5.30;99.90;;;;;;6186280;23;20193;-89
2022/01/21 04:32:58;;;;;;;0.20;0.20;;;5.20;99.90;;;;;;6161962;23;20194;-89
2022/01/21 04:35:23;;;;;;;0.30;0.30;;;5.30;99.90;;;;;;6186050;23;20246;-90
2022/01/21 04:37:55;;;;;;;0.30;0.30;;;5.20;99.90;;;;;;6186603;23;20213;-89
2022/01/21 04:40:26;;;;;;;0.30;0.30;;;5.10;99.90;;;;;;6186848;23;20182;-90
2022/01/21 04:48:21;;;;;;;0.20;0.20;;;5.10;99.90;;;;;;6211173;23;20675;-89
2022/01/21 04:51:12;;;;;;;0.20;0.20;;;5.00;99.90;;;;;;6186460;23;20205;-89
2022/01/21 04:53:39;;;;;;;0.20;0.20;;;4.80;99.90;;;;;;6191570;23;20643;-89
2022/01/21 04:56:05;;;;;;;0.30;0.30;;;4.70;99.90;;;;;;6186007;23;20209;-89
2022/01/21 04:58:31;;;;;;;0.87;0.87;;;4.70;99.90;;;;;;6185743;23;20194;-89
2022/01/21 05:00:59;;;;;;;0.20;0.20;;;4.70;99.90;;;;;;6187120;23;20158;-90
2022/01/21 05:03:24;;;;;;;0.20;0.20;;;4.80;99.90;;;;;;6210700;23;20205;-89
2022/01/21 05:05:50;;;;;;;0.40;0.40;;;4.90;99.90;;;;;;6161291;23;20190;-89
2022/01/21 05:08:27;;;;;;;0.20;0.20;;;5.00;99.90;;;;;;6161481;23;20289;-89
2022/01/21 05:10:53;;;;;;;1.03;0.73;;;5.10;99.90;;;;;;6186915;23;20200;-89
2022/01/21 05:13:23;;;;;;;0.40;0.40;;;5.20;99.90;;;;;;6185939;23;20181;-89
2022/01/21 05:16:09;;;;;;;0.30;0.30;;;5.20;99.90;;;;;;6188018;23;20143;-89
2022/01/21 05:18:35;;;;;;;0.20;0.20;;;5.10;99.90;;;;;;6169546;23;20213;-89
2022/01/21 05:21:01;;;;;;;0.20;0.20;;;5.00;99.90;;;;;;6210963;23;20198;-89
2022/01/21 05:23:27;;;;;;;0.20;0.20;;;5.10;99.90;;;;;;6186570;23;20217;-88
2022/01/21 05:25:53;;;;;;;0.20;0.20;;;4.90;99.90;;;;;;6185895;23;20194;-89
2022/01/21 05:28:19;;;;;;;0.30;0.30;;;4.90;99.90;;;;;;6173683;23;20158;-89
2022/01/21 05:30:47;;;;;;;0.40;0.40;;;4.90;99.90;;;;;;6212072;23;20181;-89
2022/01/21 05:33:13;;;;;;;0.27;0.27;;;4.90;99.90;;;;;;6210537;23;20197;-89
2022/01/21 05:35:39;;;;;;;0.20;0.20;;;4.90;99.90;;;;;;6210786;23;20643;-89
2022/01/21 05:38:04;;;;;;;2.63;0.50;;;5.00;99.90;;;;;;6162062;23;20201;-90
2022/01/21 05:40:30;;;;;;;0.30;0.30;;;5.00;99.90;;;;;;6161362;23;20255;-90
2022/01/21 05:42:58;;;;;;;1.00;1.00;;;5.10;99.90;;;;;;6186864;23;20158;-89
2022/01/21 05:48:07;;;;;;;1.27;1.23;;;5.10;99.90;;;;;;6188578;23;20201;-89
2022/01/21 05:50:33;;;;;;;4.47;0.77;;;5.10;99.90;;;;;;6159951;23;20543;-89
2022/01/21 05:53:04;;;;;;;2.13;0.87;;;5.10;99.90;;;;;;6184375;23;20213;-89
2022/01/21 05:55:30;;;;;;;6.50;1.23;;;5.10;99.90;;;;;;6185162;23;20532;-89
2022/01/21 05:57:55;;;;;;;0.53;0.50;;;5.10;99.90;;;;;;6160463;23;20174;-91
2022/01/21 06:00:21;;;;;;;0.73;0.73;;;5.10;99.90;;;;;;6159006;23;20206;-90
2022/01/21 06:02:47;;;;;;;0.30;0.30;;;5.10;99.90;;;;;;6184776;23;20650;-93
2022/01/21 06:05:14;;;;;;;4.43;0.93;;;5.10;99.90;;;;;;6160004;23;20194;-91
2022/01/21 06:07:41;;;;;;;2.53;0.40;;;5.10;99.90;;;;;;6210284;23;20258;-94
2022/01/21 06:10:08;;;;;;;0.77;0.77;;;5.10;99.90;;;;;;6184326;23;20162;-91
2022/01/21 06:12:34;;;;;;;1.17;1.10;;;5.10;99.90;;;;;;6184431;23;20186;-91
2022/01/21 06:15:00;;;;;;;0.53;0.53;;;5.10;99.90;;;;;;6158587;23;20217;-91
2022/01/21 06:17:26;;;;;;;1.93;0.77;;;5.20;99.90;;;;;;6183328;23;20225;-92
2022/01/21 06:19:51;;;;;;;0.77;0.73;;;5.10;99.90;;;;;;6183591;23;20220;-92
2022/01/21 06:22:18;;;;;;;13.47;2.07;;;5.10;99.90;;;;;;6183575;23;20162;-91
2022/01/21 06:24:44;;;;;;;5.60;2.20;;;5.10;99.90;;;;;;6184509;23;20166;-93
2022/01/21 06:27:10;;;;;;;0.83;0.63;;;5.00;99.90;;;;;;6183953;23;20655;-91
2022/01/21 06:29:36;;;;;;;11.53;1.43;;;5.00;99.90;;;;;;6183840;23;20248;-91
2022/01/21 06:32:02;;;;;;;4.90;1.40;;;5.00;99.90;;;;;;6158973;23;20194;-91
2022/01/21 06:34:28;;;;;;;0.70;0.37;;;5.00;99.90;;;;;;6159077;23;20201;-92
2022/01/21 06:36:53;;;;;;;0.53;0.53;;;5.00;99.90;;;;;;6184235;23;20572;-92
2022/01/21 06:39:19;;;;;;;6.73;1.17;;;5.10;99.90;;;;;;6159124;23;20276;-92
2022/01/21 06:41:47;;;;;;;0.57;0.57;;;5.10;99.90;;;;;;6159296;23;20197;-92
2022/01/21 06:44:13;;;;;;;2.53;0.73;;;5.20;99.90;;;;;;6159750;23;20194;-92
2022/01/21 06:46:40;;;;;;;1.83;0.70;;;5.10;99.90;;;;;;6183562;23;20265;-92
2022/01/21 06:49:05;;;;;;;0.47;0.43;;;5.20;99.90;;;;;;6210797;23;20225;-91
2022/01/21 06:51:31;;;;;;;0.87;0.87;;;5.30;99.90;;;;;;6183762;23;20650;-91
2022/01/21 06:53:57;;;;;;;0.87;0.87;;;5.40;99.90;;;;;;6183642;23;20206;-92
2022/01/21 06:56:23;;;;;;;3.60;0.40;;;5.40;99.90;;;;;;6159063;23;20222;-91
2022/01/21 06:58:49;;;;;;;1.13;1.07;;;5.40;99.90;;;;;;6158679;23;20769;-91
2022/01/21 07:01:14;;;;;;;0.40;0.40;;;5.40;99.90;;;;;;6159170;23;20173;-91
2022/01/21 07:03:40;;;;;;;2.20;0.47;;;5.50;99.90;;;;;;6159853;23;20158;-90
2022/01/21 07:06:06;;;;;;;1.03;1.03;;;5.70;99.90;;;;;;6158980;23;20233;-91
2022/01/21 07:08:34;;;;;;;2.33;0.43;;;5.70;99.90;;;;;;6158842;23;20198;-90
2022/01/21 07:11:00;;;;;;;0.87;0.87;;;5.70;99.90;;;;;;6159860;23;20193;-92
2022/01/21 07:13:26;;;;;;;10.07;0.50;;;5.80;99.90;;;;;;6183424;23;20169;-92
2022/01/21 07:15:52;;;;;;;10.33;1.03;;;5.80;99.90;;;;;;6159242;23;20192;-91
2022/01/21 07:18:18;;;;;;;0.40;0.40;;;5.80;99.90;;;;;;6182605;23;20193;-91
2022/01/21 07:20:43;;;;;;;2.13;2.03;;;5.70;99.90;;;;;;6183632;23;20206;-91
2022/01/21 07:23:09;;;;;;;0.30;0.30;;;5.80;99.90;;;;;;6158570;23;20209;-91
2022/01/21 07:25:36;;;;;;;3.83;0.60;;;5.80;99.90;;;;;;6159099;23;20197;-92
2022/01/21 07:28:02;;;;;;;0.30;0.30;;;5.90;99.90;;;;;;6209223;23;20168;-89
2022/01/21 07:30:28;;;;;;;0.47;0.47;;;5.90;99.90;;;;;;6208026;23;20285;-89
2022/01/21 07:32:54;;;;;;;0.30;0.30;;;5.90;99.90;;;;;;6157967;23;20228;-90
2022/01/21 07:35:20;;;;;;;0.30;0.30;;;5.90;99.90;;;;;;6158305;23;20190;-90
2022/01/21 07:37:46;;;;;;;0.40;0.40;;;5.90;99.90;;;;;;6158668;23;20198;-91
2022/01/21 07:40:13;;;;;;;0.40;0.40;;;6.00;99.90;;;;;;6183062;23;20268;-91
2022/01/21 07:42:39;;;;;;;0.30;0.30;;;6.00;99.90;;;;;;6183809;23;20162;-91
2022/01/21 07:45:05;;;;;;;0.20;0.20;;;6.10;99.90;;;;;;6183017;23;20714;-92
2022/01/21 07:47:31;;;;;;;1.07;1.07;;;6.10;99.90;;;;;;6209682;23;20276;-91
2022/01/21 07:49:57;;;;;;;0.40;0.40;;;6.10;99.90;;;;;;6182642;23;20233;-91
2022/01/21 07:52:23;;;;;;;1.30;1.23;;;6.10;99.90;;;;;;6158699;23;20158;-91
2022/01/21 07:54:48;;;;;;;0.70;0.70;;;6.10;99.90;;;;;;6183560;23;20244;-89
2022/01/21 07:57:14;;;;;;;0.30;0.30;;;6.20;99.90;;;;;;6159446;23;20212;-91
2022/01/21 07:59:40;;;;;;;0.90;0.90;;;6.20;99.90;;;;;;6158209;23;20232;-92
2022/01/21 08:02:06;;;;;;;1.33;1.27;;;6.10;99.90;;;;;;6183609;23;20281;-92
2022/01/21 08:04:32;;;;;;;0.53;0.53;;;6.10;99.90;;;;;;6158195;23;20194;-88
2022/01/21 08:07:00;;;;;;;1.00;0.87;;;6.10;99.90;;;;;;6184367;23;20162;-96
2022/01/21 08:09:26;;;;;;;0.30;0.30;;;6.10;99.90;;;;;;6184001;23;20194;-91
2022/01/21 08:11:53;;;;;;;22.67;0.50;;;6.10;99.90;;;;;;6158532;23;20227;-92
2022/01/21 08:14:19;;;;;;;0.87;0.87;;;6.10;99.90;;;;;;6208078;23;20201;-91
2022/01/21 08:16:45;;;;;;;0.87;0.87;;;6.10;99.90;;;;;;6207286;23;20619;-90
2022/01/21 08:19:13;;;;;;;0.97;0.97;;;6.20;99.90;;;;;;6183228;23;20190;-89
2022/01/21 08:21:39;;;;;;;0.50;0.50;;;6.10;99.90;;;;;;6208751;23;20493;-89
2022/01/21 08:24:06;;;;;;;0.80;0.80;;;6.20;99.90;;;;;;6208018;23;20198;-90
2022/01/21 08:26:32;;;;;;;0.20;0.20;;;6.10;99.90;;;;;;6208997;23;20927;-90
2022/01/21 08:28:58;;;;;;;0.83;0.63;;;6.10;99.90;;;;;;6158197;23;20285;-90
2022/01/21 08:31:24;;;;;;;1.03;0.50;;;6.10;99.90;;;;;;6183479;23;20158;-90
2022/01/21 08:33:51;;;;;;;0.20;0.20;;;6.20;99.90;;;;;;6159012;23;20165;-91
2022/01/21 08:36:25;;;;;;;0.83;0.83;;;6.30;99.90;;;;;;6207657;23;20535;-89
2022/01/21 08:38:51;;;;;;;0.77;0.77;;;6.40;99.90;;;;;;6207997;23;20255;-90
2022/01/21 08:41:17;;;;;;;1.90;1.23;;;6.50;99.90;;;;;;6209745;23;20201;-89
2022/01/21 08:43:44;;;;;;;0.20;0.20;;;6.50;99.90;;;;;;6184616;23;20198;-89
2022/01/21 08:46:10;;;;;;;1.00;0.47;;;6.50;99.90;;;;;;6209476;23;20635;-89
2022/01/21 08:48:36;;;;;;;0.87;0.80;;;6.60;99.90;;;;;;6185279;23;20162;-90
2022/01/21 08:51:08;;;;;;;0.87;0.50;;;6.50;99.90;;;;;;6209882;23;20709;-89
2022/01/21 08:53:38;;;;;;;0.27;0.27;;;6.60;99.90;;;;;;6162151;23;20644;-89
2022/01/21 08:56:13;;;;;;;0.20;0.20;;;6.60;99.90;;;;;;6209799;23;20194;-90
2022/01/21 08:58:40;;;;;;;0.40;0.40;;;6.60;99.90;;;;;;6210855;23;20216;-90
2022/01/21 09:01:06;;;;;;;2.00;1.90;;;6.60;99.90;;;;;;6185011;23;20173;-90
2022/01/21 09:03:32;;;;;;;2.20;1.03;;;6.60;99.90;;;;;;6184920;23;20294;-90
2022/01/21 09:05:58;;;;;;;1.90;1.10;;;6.70;99.90;;;;;;6184347;23;20220;-88
2022/01/21 09:08:29;;;;;;;0.80;0.40;;;6.70;99.90;;;;;;6184672;23;20636;-90
2022/01/21 09:10:55;;;;;;;0.50;0.47;;;6.80;99.90;;;;;;6184496;23;20198;-90
2022/01/21 09:13:23;;;;;;;0.20;0.20;;;6.90;99.90;;;;;;6209715;23;20154;-89
2022/01/21 09:15:49;;;;;;;0.20;0.20;;;6.80;99.90;;;;;;6185435;23;20158;-91
2022/01/21 09:18:20;;;;;;;0.17;0.17;;;6.90;99.90;;;;;;6159792;23;20624;-90
2022/01/21 09:20:47;;;;;;;0.30;0.30;;;7.00;99.90;;;;;;6185048;23;20206;-90
2022/01/21 09:23:13;;;;;;;1.50;0.70;;;7.30;99.90;;;;;;6184499;23;20284;-91
2022/01/21 09:25:39;;;;;;;1.63;0.93;;;7.30;99.90;;;;;;6210812;23;20206;-90
2022/01/21 09:28:05;;;;;;;1.60;1.13;;;7.40;99.90;;;;;;6185039;23;20166;-90
2022/01/21 09:30:31;;;;;;;0.20;0.20;;;7.50;99.90;;;;;;6183966;23;20186;-91
2022/01/21 09:32:59;;;;;;;0.20;0.20;;;7.50;99.90;;;;;;6184006;23;20197;-90
2022/01/21 09:35:25;;;;;;;0.20;0.20;;;7.50;99.90;;;;;;6209217;23;20205;-90
2022/01/21 09:37:51;;;;;;;0.30;0.30;;;7.50;99.90;;;;;;6184436;23;20512;-90
2022/01/21 09:40:17;;;;;;;0.20;0.20;;;7.50;99.90;;;;;;6209157;23;20627;-90
2022/01/21 09:42:44;;;;;;;1.70;1.70;;;7.50;99.90;;;;;;6184910;23;20158;-91
2022/01/21 09:45:13;;;;;;;0.93;0.30;;;7.50;99.90;;;;;;6209131;23;20662;-90
2022/01/21 09:47:48;;;;;;;0.20;0.20;;;7.50;99.90;;;;;;6184799;23;20198;-90
2022/01/21 09:50:17;;;;;;;0.53;0.53;;;7.50;99.90;;;;;;6184787;23;20201;-91
2022/01/21 09:52:46;;;;;;;1.40;1.40;;;7.60;99.90;;;;;;6209209;23;20204;-90
2022/01/21 09:55:13;;;;;;;0.73;0.50;;;7.60;99.90;;;;;;6208728;23;20157;-91
2022/01/21 09:57:41;;;;;;;0.83;0.83;;;7.60;99.90;;;;;;6184779;23;20163;-91
2022/01/21 10:00:09;;;;;;;0.10;0.10;;;7.60;99.90;;;;;;6184115;23;20739;-91
2022/01/21 10:02:36;;;;;;;0.83;0.63;;;7.50;99.90;;;;;;6159570;23;20640;-90
2022/01/21 10:05:04;;;;;;;0.50;0.50;;;7.50;99.90;;;;;;6208734;23;20225;-90
2022/01/21 10:07:30;;;;;;;0.40;0.40;;;7.50;99.90;;;;;;6209292;23;20190;-90
2022/01/21 10:09:57;;;;;;;1.17;0.83;;;7.50;99.90;;;;;;6184608;23;20646;-90
2022/01/21 10:12:24;;;;;;;0.37;0.37;;;7.60;99.90;;;;;;6183552;23;20225;-90
2022/01/21 10:14:50;;;;;;;0.40;0.40;;;7.70;99.90;;;;;;6159822;23;20201;-90
2022/01/21 10:17:16;;;;;;;0.63;0.63;;;7.70;99.90;;;;;;6183600;23;20206;-90
2022/01/21 10:19:48;;;;;;;0.43;0.37;;;7.80;99.90;;;;;;6183756;23;20206;-90
2022/01/21 10:22:20;;;;;;;0.67;0.67;;;7.80;99.90;;;;;;6208822;23;20479;-90
2022/01/21 10:24:59;;;;;;;10.93;1.80;;;7.90;99.90;;;;;;6209678;23;20494;-89
2022/01/21 10:27:35;;;;;;;0.40;0.40;;;8.00;99.90;;;;;;6209076;23;20537;-90
2022/01/21 10:30:02;;;;;;;0.20;0.20;;;8.10;99.90;;;;;;6185508;23;20197;-90
2022/01/21 10:32:41;;;;;;;2.20;0.30;;;8.00;99.90;;;;;;6183613;23;20202;-91
2022/01/21 10:35:31;;;;;;;0.20;0.20;;;8.10;99.90;;;;;;6210315;23;20190;-91
2022/01/21 10:38:17;;;;;;;0.10;0.10;;;8.10;99.90;;;;;;6208801;23;21039;-91
2022/01/21 10:40:43;;;;;;;0.13;0.13;;;8.10;99.90;;;;;;6208199;23;20240;-90
2022/01/21 10:43:14;;;;;;;0.20;0.20;;;8.10;99.90;;;;;;6207688;23;20162;-90
2022/01/21 10:45:56;;;;;;;5.63;1.17;;;8.10;99.90;;;;;;6209022;23;20158;-92
2022/01/21 10:48:22;;;;;;;1.00;0.27;;;8.00;99.90;;;;;;6208284;23;20202;-91
2022/01/21 10:51:15;;;;;;;0.53;0.53;;;8.00;99.90;;;;;;6184177;23;20213;-91
2022/01/21 10:53:43;;;;;;;11.63;0.40;;;8.10;99.90;;;;;;6208639;23;20205;-91
2022/01/21 10:56:12;;;;;;;0.10;0.10;;;8.20;99.90;;;;;;6160270;23;20247;-91
2022/01/21 10:58:46;;;;;;;1.27;1.17;;;8.10;99.90;;;;;;6208976;23;20534;-92
2022/01/21 11:01:17;;;;;;;0.20;0.20;;;8.20;99.90;;;;;;6184572;23;20151;-91
2022/01/21 11:04:11;;;;;;;1.30;1.23;;;8.10;99.90;;;;;;6185201;23;20142;-93
2022/01/21 11:06:53;;;;;;;0.77;0.30;;;8.20;99.90;;;;;;6209181;23;20186;-93
2022/01/21 11:09:24;;;;;;;2.40;1.27;;;8.20;99.90;;;;;;6208546;23;20281;-93
2022/01/21 11:12:14;;;;;;;1.33;0.60;;;8.20;99.90;;;;;;6208255;23;20197;-91
2022/01/21 11:14:57;;;;;;;0.73;0.73;;;8.20;99.90;;;;;;6208708;23;20198;-91
2022/01/21 11:17:23;;;;;;;0.20;0.20;;;8.20;99.90;;;;;;6184310;23;20273;-93
2022/01/21 11:20:07;;;;;;;0.20;0.20;;;8.20;99.90;;;;;;6183088;23;20212;-92
2022/01/21 11:22:56;;;;;;;0.10;0.10;;;8.40;99.90;;;;;;6208836;23;20197;-92
2022/01/21 11:25:41;;;;;;;0.10;0.10;;;8.40;99.90;;;;;;6209103;23;20201;-92
2022/01/21 11:28:09;;;;;;;0.10;0.10;;;8.50;99.90;;;;;;6158470;23;20162;-92
2022/01/21 11:30:34;;;;;;;0.93;0.93;;;8.50;99.90;;;;;;6184518;23;20215;-92
2022/01/21 11:33:00;;;;;;;0.00;0.00;;;8.40;99.90;;;;;;6158513;23;20197;-92
2022/01/21 11:35:28;;;;;;;0.13;0.13;;;8.40;99.90;;;;;;6206468;23;20198;-94
2022/01/21 11:37:54;;;;;;;2.20;2.10;;;8.40;99.90;;;;;;6207696;23;20197;-91
2022/01/21 11:40:21;;;;;;;4.03;0.73;;;8.30;99.90;;;;;;6183485;23;20190;-91
2022/01/21 11:42:49;;;;;;;0.13;0.13;;;8.40;99.90;;;;;;6183939;23;20614;-91
2022/01/21 11:45:32;;;;;;;0.30;0.30;;;8.40;99.90;;;;;;6182712;23;20202;-91
2022/01/21 11:50:51;;;;;;;0.10;0.10;;;8.40;99.90;;;;;;6178414;23;20214;-93
2022/01/21 11:53:44;;;;;;;0.20;0.20;;;8.30;99.90;;;;;;6183668;23;20527;-92
2022/01/21 11:56:34;;;;;;;1.07;0.77;;;8.30;99.90;;;;;;6190824;23;20273;-93
2022/01/21 11:59:08;;;;;;;1.03;0.40;;;8.20;99.90;;;;;;6210221;23;20756;-92
2022/01/21 12:01:39;;;;;;;1.13;1.13;;;8.20;99.90;;;;;;6208642;23;20784;-92
2022/01/21 12:04:05;;;;;;;0.37;0.37;;;8.10;99.90;;;;;;6208149;23;20154;-92
2022/01/21 12:06:35;;;;;;;0.20;0.20;;;8.20;99.90;;;;;;6158209;23;20198;-93
2022/01/21 12:09:04;;;;;;;1.03;0.43;;;8.30;99.90;;;;;;6182658;23;20280;-92
2022/01/21 12:11:37;;;;;;;0.10;0.10;;;8.50;99.90;;;;;;6208342;23;20206;-93
2022/01/21 12:14:29;;;;;;;0.20;0.20;;;8.50;99.90;;;;;;6184359;23;20204;-93
2022/01/21 12:17:01;;;;;;;0.63;0.63;;;8.50;99.90;;;;;;6191316;23;20280;-94
2022/01/21 12:19:35;;;;;;;0.17;0.17;;;8.40;99.90;;;;;;6164031;23;20310;-92
2022/01/21 12:22:17;;;;;;;1.07;0.47;;;8.30;99.90;;;;;;6164443;23;20253;-94
2022/01/21 12:25:05;;;;;;;0.20;0.20;;;8.40;99.90;;;;;;6211836;23;20189;-93
2022/01/21 12:27:31;;;;;;;0.20;0.20;;;8.30;99.90;;;;;;6210511;23;20208;-94
2022/01/21 12:30:23;;;;;;;3.50;0.40;;;8.20;99.90;;;;;;6210314;23;20198;-93
2022/01/21 12:32:58;;;;;;;0.20;0.20;;;8.20;99.90;;;;;;6210861;23;20202;-93
2022/01/21 12:35:25;;;;;;;3.00;1.10;;;8.20;99.90;;;;;;6210904;23;20808;-92
2022/01/21 12:39:06;;;;;;;1.40;1.23;;;8.20;99.90;;;;;;6187991;23;20202;-94
2022/01/21 12:41:18;;;;;;;2.00;1.90;;;8.30;99.90;;;;;;6213555;23;20205;-94
2022/01/21 12:43:59;;;;;;;0.33;0.33;;;8.10;99.90;;;;;;6213250;23;20197;-95
2022/01/21 12:46:34;;;;;;;0.40;0.40;;;8.10;99.90;;;;;;6214453;23;20162;-94
2022/01/21 12:49:21;;;;;;;0.10;0.10;;;8.00;99.90;;;;;;6213730;23;20181;-95
2022/01/21 12:57:43;;;;;;;1.60;1.03;;;8.00;99.90;;;;;;6199910;23;20193;-94
2022/01/21 13:00:10;;;;;;;1.13;0.63;;;8.00;99.90;;;;;;6186896;23;20260;-95
2022/01/21 13:02:37;;;;;;;1.23;1.23;;;8.10;99.90;;;;;;6210863;23;20202;-95
2022/01/21 13:05:16;;;;;;;2.37;0.40;;;8.10;99.90;;;;;;6185368;23;20194;-93
2022/01/21 13:07:57;;;;;;;0.30;0.30;;;8.10;99.90;;;;;;6210237;23;20228;-93
2022/01/21 13:10:26;;;;;;;1.57;0.77;;;8.00;99.90;;;;;;6210739;23;20566;-94
2022/01/21 13:13:14;;;;;;;3.40;0.67;;;8.10;99.90;;;;;;6210875;23;20215;-94
2022/01/21 13:15:54;;;;;;;0.23;0.23;;;8.10;99.90;;;;;;6210722;23;20201;-92
2022/01/21 13:18:26;;;;;;;0.17;0.17;;;8.10;99.90;;;;;;6210511;23;20202;-93
2022/01/21 13:20:58;;;;;;;2.80;1.10;;;8.10;99.90;;;;;;6210395;23;20539;-94
2022/01/21 13:23:43;;;;;;;10.40;0.60;;;8.10;99.90;;;;;;6210652;23;20201;-93
2022/01/21 13:26:19;;;;;;;1.10;1.10;;;8.20;99.90;;;;;;6209816;23;20247;-92
2022/01/21 13:28:59;;;;;;;0.10;0.10;;;8.10;99.90;;;;;;6211921;23;20205;-94
2022/01/21 13:31:28;;;;;;;12.00;1.83;;;8.20;99.90;;;;;;6211019;23;20153;-93
2022/01/21 13:34:06;;;;;;;2.67;0.67;;;8.20;99.90;;;;;;6212364;23;20165;-94
2022/01/21 13:36:48;;;;;;;3.97;1.77;;;8.20;99.90;;;;;;6211092;23;20186;-94
2022/01/21 13:39:26;;;;;;;1.13;0.60;;;8.20;99.90;;;;;;6210602;23;20237;-94
2022/01/21 13:42:11;;;;;;;1.93;0.90;;;8.20;99.90;;;;;;6210823;23;20198;-93
2022/01/21 13:44:49;;;;;;;2.63;1.00;;;8.30;99.90;;;;;;6211338;23;20202;-95
2022/01/21 13:47:28;;;;;;;8.00;0.53;;;8.30;99.90;;;;;;6213439;23;20710;-95
2022/01/21 13:50:13;;;;;;;3.63;0.80;;;8.40;99.90;;;;;;6210687;23;20667;-95
2022/01/21 13:52:45;;;;;;;0.30;0.30;;;8.30;99.90;;;;;;6210873;23;20197;-92
2022/01/21 13:55:26;;;;;;;0.73;0.73;;;8.20;99.90;;;;;;6209895;23;20143;-92
2022/01/21 13:57:52;;;;;;;0.10;0.10;;;8.20;99.90;;;;;;6210466;23;20228;-91
2022/01/21 14:00:36;;;;;;;0.73;0.73;;;8.10;99.90;;;;;;6184865;23;20245;-90
2022/01/21 14:03:03;;;;;;;3.17;1.13;;;8.20;99.90;;;;;;6209154;23;20228;-92
2022/01/21 14:05:50;;;;;;;2.13;1.03;;;8.10;99.90;;;;;;6209165;23;20631;-90
2022/01/21 14:08:21;;;;;;;0.23;0.23;;;8.10;99.90;;;;;;6209621;23;20259;-91